Time;durP1;ratioP1;P1;durP2;ratioP2;P2;SDS_P1;SDS_P2;PMS_P1;PMS_P2;Temp;Humidity;BMP_temperature;BMP_pressure;BME280_temperature;BME280_humidity;BME280_pressure;Samples;Min_cycle;Max_cycle;Signal;HPM_P1;HPM_P2
2022/11/12 00:00:47;;;;;;;16.02;8.85;;;6.00;87.80;;;;;;5093592;28;20024;-62
2022/11/12 00:03:13;;;;;;;16.23;9.27;;;5.90;88.10;;;;;;5093710;28;20031;-62
2022/11/12 00:05:39;;;;;;;15.70;8.43;;;6.20;88.40;;;;;;5093930;28;20028;-61
2022/11/12 00:08:04;;;;;;;12.88;7.78;;;6.10;88.30;;;;;;5071917;28;20121;-62
2022/11/12 00:10:31;;;;;;;16.83;9.13;;;6.00;88.10;;;;;;5071905;28;20024;-62
2022/11/12 00:12:56;;;;;;;13.88;8.45;;;5.90;88.20;;;;;;5073135;28;20032;-63
2022/11/12 00:15:22;;;;;;;13.48;8.65;;;5.80;88.40;;;;;;5073440;28;20032;-62
2022/11/12 00:17:48;;;;;;;16.25;10.02;;;5.80;88.60;;;;;;5073025;28;20060;-66
2022/11/12 00:20:14;;;;;;;17.52;9.60;;;5.80;88.80;;;;;;5073287;28;20372;-62
2022/11/12 00:22:39;;;;;;;19.33;9.88;;;6.00;89.10;;;;;;5073203;28;20512;-62
2022/11/12 00:25:06;;;;;;;21.70;12.38;;;6.00;88.10;;;;;;5073239;28;20024;-62
2022/11/12 00:27:32;;;;;;;21.77;12.93;;;6.00;88.10;;;;;;5073186;28;20024;-62
2022/11/12 00:29:57;;;;;;;15.73;11.05;;;5.90;87.70;;;;;;5076168;28;20048;-60
2022/11/12 00:32:23;;;;;;;18.48;10.50;;;5.80;87.50;;;;;;5075960;28;20025;-61
2022/11/12 00:34:49;;;;;;;17.77;9.80;;;5.90;87.80;;;;;;5075686;28;20100;-63
2022/11/12 00:37:15;;;;;;;15.30;10.07;;;6.00;87.80;;;;;;5076998;28;20028;-62
2022/11/12 00:39:41;;;;;;;14.73;9.43;;;5.90;87.80;;;;;;5077171;28;20154;-63
2022/11/12 00:42:07;;;;;;;18.45;9.85;;;5.80;88.10;;;;;;5076917;28;20063;-62
2022/11/12 00:44:33;;;;;;;14.20;7.63;;;6.00;88.10;;;;;;5076802;28;20029;-61
2022/11/12 00:46:58;;;;;;;17.50;8.07;;;6.00;87.90;;;;;;5076879;28;20115;-63
2022/11/12 00:49:24;;;;;;;16.90;8.52;;;6.00;87.80;;;;;;5075494;28;20039;-62
2022/11/12 00:51:50;;;;;;;13.95;7.65;;;6.00;87.90;;;;;;5076615;28;20568;-62
2022/11/12 00:54:16;;;;;;;13.27;7.35;;;6.00;87.80;;;;;;5076561;28;20092;-62
2022/11/12 00:56:41;;;;;;;18.65;8.07;;;5.80;87.60;;;;;;5076895;28;20357;-62
2022/11/12 00:59:07;;;;;;;26.33;10.32;;;5.70;87.70;;;;;;5076506;28;20031;-62
2022/11/12 01:01:33;;;;;;;12.75;7.60;;;5.70;88.10;;;;;;5075277;28;20021;-61
2022/11/12 01:03:59;;;;;;;13.77;8.43;;;5.70;88.30;;;;;;5076726;28;20020;-61
2022/11/12 01:06:26;;;;;;;11.00;7.07;;;5.80;88.20;;;;;;5078123;28;20476;-63
2022/11/12 01:08:54;;;;;;;13.25;7.03;;;5.90;88.30;;;;;;5078739;28;20110;-62
2022/11/12 01:11:25;;;;;;;11.88;6.35;;;5.80;87.80;;;;;;5097098;28;20081;-62
2022/11/12 01:14:01;;;;;;;13.13;7.22;;;5.80;87.90;;;;;;5097076;28;20020;-61
2022/11/12 01:16:30;;;;;;;9.57;6.07;;;5.60;87.80;;;;;;5096746;28;20028;-63
2022/11/12 01:18:58;;;;;;;16.85;10.27;;;5.40;88.10;;;;;;5096547;28;20028;-62
2022/11/12 01:21:26;;;;;;;14.30;9.48;;;5.40;88.50;;;;;;5096595;28;20020;-63
2022/11/12 01:23:52;;;;;;;14.65;7.95;;;5.50;88.80;;;;;;5096424;28;20020;-61
2022/11/12 01:26:21;;;;;;;20.63;11.55;;;5.70;88.80;;;;;;5078185;28;20495;-62
2022/11/12 01:28:47;;;;;;;17.92;8.57;;;5.50;88.20;;;;;;5077957;28;20165;-62
2022/11/12 01:31:13;;;;;;;19.50;10.95;;;5.60;88.60;;;;;;5077936;28;20024;-62
2022/11/12 01:33:40;;;;;;;24.92;11.18;;;5.70;88.20;;;;;;5096259;28;20024;-62
2022/11/12 01:36:06;;;;;;;20.67;11.65;;;5.60;87.90;;;;;;5096297;28;20461;-62
2022/11/12 01:38:36;;;;;;;18.83;10.50;;;5.60;87.70;;;;;;5096058;28;20542;-61
2022/11/12 01:41:11;;;;;;;20.75;12.18;;;5.50;87.90;;;;;;5095843;28;20028;-62
2022/11/12 01:43:37;;;;;;;21.45;13.15;;;5.30;87.60;;;;;;5096264;28;20079;-63
2022/11/12 01:46:07;;;;;;;22.13;12.90;;;5.30;88.10;;;;;;5096041;28;20028;-62
2022/11/12 01:49:05;;;;;;;24.55;14.00;;;5.40;88.10;;;;;;5096256;28;20051;-62
2022/11/12 01:51:35;;;;;;;20.42;12.70;;;5.50;88.10;;;;;;5074255;28;20036;-61
2022/11/12 01:54:05;;;;;;;30.83;13.15;;;5.30;87.10;;;;;;5095851;28;20036;-61
2022/11/12 01:56:31;;;;;;;19.20;10.65;;;5.30;87.30;;;;;;5061223;28;20028;-61
2022/11/12 01:59:13;;;;;;;14.30;9.95;;;5.30;87.50;;;;;;5095474;28;20054;-62
2022/11/12 02:01:38;;;;;;;13.77;9.55;;;5.30;87.90;;;;;;5095903;28;20110;-62
2022/11/12 02:04:04;;;;;;;14.77;8.77;;;5.20;88.20;;;;;;5095584;28;20030;-63
2022/11/12 02:06:31;;;;;;;10.35;7.68;;;5.20;88.70;;;;;;5095506;28;20131;-62
2022/11/12 02:08:57;;;;;;;18.35;8.70;;;5.20;89.00;;;;;;5077194;28;20053;-61
2022/11/12 02:11:22;;;;;;;14.52;8.55;;;5.10;89.10;;;;;;5095456;28;20028;-63
2022/11/12 02:13:56;;;;;;;19.17;8.93;;;5.10;89.30;;;;;;5095774;28;20024;-61
2022/11/12 02:16:28;;;;;;;16.42;8.30;;;5.20;89.40;;;;;;5095655;28;20394;-62
2022/11/12 02:18:54;;;;;;;15.75;8.65;;;5.20;89.50;;;;;;5095420;28;20100;-62
2022/11/12 02:21:21;;;;;;;20.42;8.98;;;5.20;89.60;;;;;;5095206;28;20028;-61
2022/11/12 02:24:04;;;;;;;19.67;9.48;;;5.20;89.50;;;;;;5095199;28;20028;-61
2022/11/12 02:26:33;;;;;;;15.20;8.50;;;5.20;89.60;;;;;;5095351;28;20020;-61
2022/11/12 02:28:59;;;;;;;18.88;8.05;;;5.30;89.60;;;;;;5095095;28;20073;-62
2022/11/12 02:31:25;;;;;;;18.75;7.75;;;5.20;89.60;;;;;;5077007;28;20024;-61
2022/11/12 02:33:53;;;;;;;18.02;8.30;;;5.30;89.70;;;;;;5094925;28;20435;-61
2022/11/12 02:36:19;;;;;;;15.27;8.35;;;5.30;89.70;;;;;;5076766;28;20028;-62
2022/11/12 02:38:45;;;;;;;15.95;7.75;;;5.30;89.60;;;;;;5095045;28;20020;-61
2022/11/12 02:41:10;;;;;;;18.65;8.55;;;5.40;89.50;;;;;;5094996;28;20024;-61
2022/11/12 02:43:36;;;;;;;16.73;7.70;;;5.40;89.70;;;;;;5095344;28;20028;-61
2022/11/12 02:46:02;;;;;;;15.90;7.55;;;5.30;89.60;;;;;;5094754;28;20099;-61
2022/11/12 02:48:27;;;;;;;14.73;7.68;;;5.30;89.60;;;;;;5094700;28;20028;-61
2022/11/12 02:50:53;;;;;;;9.35;6.78;;;5.30;89.60;;;;;;5094500;28;20379;-66
2022/11/12 02:53:18;;;;;;;17.50;8.50;;;5.40;89.70;;;;;;5094485;28;20047;-61
2022/11/12 02:55:44;;;;;;;16.60;7.90;;;5.50;89.80;;;;;;5095140;28;20084;-61
2022/11/12 02:58:10;;;;;;;21.08;8.65;;;5.60;89.70;;;;;;5094688;28;20032;-62
2022/11/12 03:00:35;;;;;;;20.95;8.10;;;5.70;89.70;;;;;;5094516;28;20032;-62
2022/11/12 03:03:01;;;;;;;14.05;8.48;;;5.70;89.40;;;;;;5094451;28;20385;-61
2022/11/12 03:05:31;;;;;;;16.00;9.05;;;5.80;89.30;;;;;;5094423;28;20081;-61
2022/11/12 03:07:58;;;;;;;13.98;7.63;;;5.70;89.00;;;;;;5094225;28;20499;-63
2022/11/12 03:10:25;;;;;;;19.77;8.25;;;5.40;89.00;;;;;;5094365;28;20056;-62
2022/11/12 03:12:51;;;;;;;22.05;9.63;;;5.30;89.40;;;;;;5094536;28;20506;-61
2022/11/12 03:15:17;;;;;;;20.77;10.35;;;5.40;89.70;;;;;;5094749;28;20099;-62
2022/11/12 03:17:42;;;;;;;19.58;9.15;;;5.50;89.20;;;;;;5094325;28;20035;-63
2022/11/12 03:20:09;;;;;;;17.20;9.25;;;5.50;89.20;;;;;;5094491;28;20031;-61
2022/11/12 03:22:36;;;;;;;14.05;7.63;;;5.50;88.80;;;;;;5094101;28;20020;-61
2022/11/12 03:25:03;;;;;;;14.77;7.50;;;5.40;88.80;;;;;;5094248;28;20078;-61
2022/11/12 03:27:29;;;;;;;17.17;8.00;;;5.30;88.90;;;;;;5094278;28;20024;-62
2022/11/12 03:29:55;;;;;;;16.83;7.65;;;5.30;89.00;;;;;;5075800;28;20020;-61
2022/11/12 03:32:21;;;;;;;11.00;7.65;;;5.30;89.20;;;;;;5093976;28;20479;-61
2022/11/12 03:34:47;;;;;;;12.73;7.32;;;5.30;89.10;;;;;;5075784;28;20117;-61
2022/11/12 03:37:12;;;;;;;13.95;6.95;;;5.30;88.80;;;;;;5093920;28;20024;-62
2022/11/12 03:39:38;;;;;;;15.80;7.95;;;5.30;88.80;;;;;;5094130;28;20024;-61
2022/11/12 03:42:04;;;;;;;14.07;7.53;;;5.30;88.70;;;;;;5094281;28;20046;-62
2022/11/12 03:44:29;;;;;;;14.38;8.68;;;5.20;88.70;;;;;;5094199;28;20032;-61
2022/11/12 03:46:55;;;;;;;14.85;8.00;;;5.10;88.90;;;;;;5093887;28;20442;-61
2022/11/12 03:49:21;;;;;;;17.05;7.32;;;5.10;89.10;;;;;;5093999;28;20020;-61
2022/11/12 03:51:49;;;;;;;14.18;9.05;;;5.20;89.30;;;;;;5094135;28;20024;-61
2022/11/12 03:54:15;;;;;;;13.98;7.88;;;5.10;89.10;;;;;;5075677;28;20028;-61
2022/11/12 03:56:41;;;;;;;15.35;8.07;;;5.00;89.30;;;;;;5094010;28;20028;-62
2022/11/12 03:59:06;;;;;;;16.75;9.15;;;5.00;89.80;;;;;;5093827;28;20056;-61
2022/11/12 04:01:32;;;;;;;10.73;7.45;;;5.20;89.50;;;;;;5093566;28;20016;-62
2022/11/12 04:03:58;;;;;;;15.27;7.93;;;5.20;89.60;;;;;;5093396;28;20029;-61
2022/11/12 04:09:07;;;;;;;12.57;7.40;;;5.10;89.30;;;;;;5093846;28;20074;-61
2022/11/12 04:11:33;;;;;;;15.43;8.35;;;5.10;89.10;;;;;;5093378;28;20048;-61
2022/11/12 04:13:59;;;;;;;14.93;7.53;;;5.00;89.50;;;;;;5075546;28;20031;-61
2022/11/12 04:22:08;;;;;;;15.02;8.40;;;5.10;89.20;;;;;;5093895;28;20031;-61
2022/11/12 04:27:32;;;;;;;12.85;7.35;;;5.10;89.60;;;;;;5093515;28;20038;-62
2022/11/12 04:30:20;;;;;;;11.02;7.97;;;5.20;89.20;;;;;;5075389;28;20024;-61
2022/11/12 04:32:53;;;;;;;13.30;6.65;;;5.30;89.10;;;;;;5075179;28;20027;-63
2022/11/12 04:35:19;;;;;;;11.85;6.88;;;5.10;88.70;;;;;;5093181;28;20028;-62
2022/11/12 04:37:45;;;;;;;10.43;7.13;;;5.00;89.00;;;;;;5093557;28;20059;-61
2022/11/12 04:45:58;;;;;;;11.75;7.97;;;5.20;88.50;;;;;;5093628;28;20068;-62
2022/11/12 04:48:24;;;;;;;12.60;6.88;;;4.90;88.80;;;;;;5093699;28;20430;-62
2022/11/12 04:52:03;;;;;;;14.30;6.93;;;4.80;89.00;;;;;;5093233;28;20016;-61
2022/11/12 04:53:49;;;;;;;14.13;6.55;;;5.10;89.40;;;;;;5092933;28;20020;-62
2022/11/12 04:56:14;;;;;;;13.60;6.65;;;4.90;88.90;;;;;;5093639;28;20058;-62
2022/11/12 04:58:40;;;;;;;12.18;7.00;;;4.90;89.00;;;;;;5093178;28;20024;-63
2022/11/12 05:01:05;;;;;;;30.58;8.77;;;5.00;89.20;;;;;;5093178;28;20020;-62
2022/11/12 05:03:31;;;;;;;14.57;8.25;;;5.00;88.70;;;;;;5093244;28;20043;-61
2022/11/12 05:06:50;;;;;;;18.50;7.88;;;4.90;88.60;;;;;;5093662;28;20031;-61
2022/11/12 05:08:53;;;;;;;12.25;6.95;;;4.90;88.90;;;;;;5092778;28;20044;-62
2022/11/12 05:11:19;;;;;;;16.48;7.70;;;4.90;88.60;;;;;;5093321;28;20104;-62
2022/11/12 05:13:45;;;;;;;12.95;7.53;;;4.80;88.20;;;;;;5093194;28;20035;-62
2022/11/12 05:16:11;;;;;;;17.70;7.60;;;4.70;88.40;;;;;;5096266;28;20523;-63
2022/11/12 05:18:36;;;;;;;11.68;7.50;;;4.80;88.60;;;;;;5096759;28;20024;-62
2022/11/12 05:22:04;;;;;;;12.32;6.38;;;4.80;88.40;;;;;;5096740;28;20454;-62
2022/11/12 05:23:47;;;;;;;11.77;7.97;;;4.80;88.40;;;;;;5096340;28;20020;-61
2022/11/12 05:26:13;;;;;;;13.30;7.65;;;4.80;88.10;;;;;;5096367;28;20149;-61
2022/11/12 05:28:39;;;;;;;12.90;7.63;;;4.80;88.30;;;;;;5096338;28;20028;-61
2022/11/12 05:31:04;;;;;;;14.55;8.52;;;4.80;88.10;;;;;;5096294;28;20525;-61
2022/11/12 05:33:30;;;;;;;10.95;7.28;;;4.80;88.30;;;;;;5096310;28;20060;-61
2022/11/12 05:35:56;;;;;;;12.20;8.38;;;4.90;88.10;;;;;;5096124;28;20020;-62
2022/11/12 05:38:22;;;;;;;12.13;8.32;;;4.80;88.10;;;;;;5096156;28;20054;-62
2022/11/12 05:40:47;;;;;;;14.05;8.35;;;4.80;88.40;;;;;;5095949;28;20047;-62
2022/11/12 05:43:13;;;;;;;15.30;8.13;;;4.60;88.40;;;;;;5095980;28;20023;-62
2022/11/12 05:45:42;;;;;;;13.32;8.13;;;4.60;88.70;;;;;;5095901;28;20085;-62
2022/11/12 05:48:08;;;;;;;23.48;10.77;;;4.70;88.70;;;;;;5096097;28;20112;-62
2022/11/12 05:50:33;;;;;;;12.32;8.10;;;4.60;88.40;;;;;;5077753;28;20440;-61
2022/11/12 05:52:59;;;;;;;16.52;9.48;;;4.60;88.80;;;;;;5095835;28;20115;-62
2022/11/12 05:55:25;;;;;;;14.43;8.85;;;4.60;89.00;;;;;;5095972;28;20060;-64
2022/11/12 05:57:50;;;;;;;17.75;9.45;;;4.80;89.00;;;;;;5096346;28;20032;-62
2022/11/12 06:00:16;;;;;;;19.23;9.43;;;4.70;88.70;;;;;;5095807;28;20380;-61
2022/11/12 06:02:42;;;;;;;17.73;10.55;;;4.80;88.90;;;;;;5095871;28;20024;-62
2022/11/12 06:05:08;;;;;;;16.33;9.48;;;4.80;88.80;;;;;;5077589;28;20057;-62
2022/11/12 06:07:34;;;;;;;16.75;9.82;;;4.70;89.00;;;;;;5095496;28;20044;-63
2022/11/12 06:10:02;;;;;;;17.50;9.50;;;4.80;89.20;;;;;;5077540;28;20161;-62
2022/11/12 06:12:28;;;;;;;18.23;9.18;;;4.70;89.00;;;;;;5095663;28;20380;-63
2022/11/12 06:14:54;;;;;;;15.60;9.57;;;4.80;89.30;;;;;;5095488;28;20035;-61
2022/11/12 06:17:20;;;;;;;17.02;9.20;;;4.80;89.00;;;;;;5095416;28;20486;-62
2022/11/12 06:19:45;;;;;;;25.35;10.35;;;4.80;89.00;;;;;;5095761;28;20103;-62
2022/11/12 06:22:14;;;;;;;18.58;8.90;;;4.70;88.90;;;;;;5095755;28;20146;-61
2022/11/12 06:24:39;;;;;;;19.25;9.27;;;4.70;88.80;;;;;;5095936;28;20056;-63
2022/11/12 16:07:23;;;;;;;14.35;7.40;;;11.50;74.00;;;;;;5071274;28;20410;-49
2022/11/12 16:09:51;;;;;;;9.65;6.68;;;11.30;75.00;;;;;;5071004;28;20047;-51
2022/11/12 16:12:17;;;;;;;11.60;9.25;;;11.50;75.70;;;;;;5070788;28;20491;-52
2022/11/12 16:14:43;;;;;;;12.52;9.35;;;11.80;75.00;;;;;;5069629;28;20021;-53
2022/11/12 16:17:14;;;;;;;16.98;8.05;;;11.80;74.60;;;;;;5071145;28;20031;-49
2022/11/12 16:19:40;;;;;;;14.13;8.77;;;11.80;74.70;;;;;;5071197;28;20025;-52
2022/11/12 16:22:11;;;;;;;13.98;8.95;;;11.90;74.90;;;;;;5071174;28;20043;-52
2022/11/12 16:24:41;;;;;;;15.52;9.68;;;11.90;74.40;;;;;;5070558;28;20089;-50
2022/11/12 16:27:12;;;;;;;14.20;9.95;;;11.80;74.70;;;;;;5070767;28;20417;-52
2022/11/12 16:29:37;;;;;;;17.00;10.48;;;11.80;75.40;;;;;;5070989;28;20107;-50
2022/11/12 16:32:03;;;;;;;18.52;8.73;;;11.90;74.70;;;;;;5070375;28;20108;-49
2022/11/12 16:34:29;;;;;;;14.45;10.00;;;11.90;74.70;;;;;;5069631;28;20063;-51
2022/11/12 16:36:56;;;;;;;15.20;10.13;;;11.90;74.80;;;;;;5068842;28;20036;-49
2022/11/12 16:39:22;;;;;;;15.55;9.38;;;11.90;74.80;;;;;;5068899;28;20031;-51
2022/11/12 16:41:48;;;;;;;16.00;9.02;;;11.80;75.00;;;;;;5069156;28;20021;-52
2022/11/12 16:44:14;;;;;;;16.55;9.98;;;11.80;75.10;;;;;;5070807;28;20342;-49
2022/11/12 16:46:41;;;;;;;17.15;10.18;;;11.80;75.30;;;;;;5069055;28;20021;-50
2022/11/12 16:49:15;;;;;;;21.83;9.90;;;11.70;75.60;;;;;;5068876;28;20096;-51
2022/11/12 16:51:41;;;;;;;17.98;9.10;;;11.70;75.70;;;;;;5070009;28;20035;-50
2022/11/12 16:54:07;;;;;;;17.35;9.15;;;11.70;75.70;;;;;;5070279;28;20028;-53
2022/11/12 16:56:35;;;;;;;21.17;10.23;;;11.70;75.60;;;;;;5070123;28;20127;-53
2022/11/12 16:59:01;;;;;;;17.20;10.60;;;11.60;75.80;;;;;;5068676;28;20024;-52
2022/11/12 17:01:29;;;;;;;28.85;11.85;;;11.50;75.80;;;;;;5069570;28;20108;-50
2022/11/12 17:03:56;;;;;;;15.80;8.55;;;11.30;76.40;;;;;;5069509;28;20104;-50
2022/11/12 17:06:30;;;;;;;13.77;9.45;;;11.40;76.50;;;;;;5068020;28;20052;-49
2022/11/12 17:08:55;;;;;;;20.65;12.48;;;11.30;76.60;;;;;;5069508;28;20374;-49
2022/11/12 17:11:21;;;;;;;22.00;10.95;;;11.30;76.10;;;;;;5069464;28;20105;-55
2022/11/12 17:13:47;;;;;;;24.15;11.82;;;11.00;77.00;;;;;;5069554;28;20055;-51
2022/11/12 17:16:12;;;;;;;18.77;10.82;;;11.00;77.70;;;;;;5068886;28;20028;-52
2022/11/12 17:18:38;;;;;;;15.77;10.68;;;11.00;77.40;;;;;;5056587;28;20051;-51
2022/11/12 17:21:08;;;;;;;16.80;10.07;;;11.20;77.40;;;;;;5056289;28;20540;-49
2022/11/12 17:23:34;;;;;;;15.05;9.80;;;11.20;77.00;;;;;;5055668;28;20100;-48
2022/11/12 17:26:02;;;;;;;18.55;10.82;;;11.20;77.00;;;;;;5055489;28;20107;-49
2022/11/12 17:28:30;;;;;;;14.40;9.50;;;11.20;77.20;;;;;;5055623;28;20025;-52
2022/11/12 17:31:14;;;;;;;15.80;9.82;;;11.20;76.70;;;;;;5054523;28;20033;-49
2022/11/12 17:33:44;;;;;;;12.43;9.93;;;11.00;77.30;;;;;;5055473;28;20060;-50
2022/11/12 17:36:12;;;;;;;16.83;10.05;;;11.10;76.50;;;;;;5055464;28;20025;-52
2022/11/12 17:38:38;;;;;;;21.23;10.77;;;10.90;77.20;;;;;;5055483;28;20543;-50
2022/11/12 17:41:05;;;;;;;18.10;8.90;;;10.80;77.70;;;;;;5055572;28;20029;-49
2022/11/12 17:43:31;;;;;;;19.15;9.88;;;10.70;78.00;;;;;;5055420;28;20017;-49
2022/11/12 17:45:57;;;;;;;13.35;8.73;;;10.70;77.70;;;;;;5055385;28;20033;-52
2022/11/12 17:48:23;;;;;;;16.85;8.55;;;10.80;77.90;;;;;;5055431;28;20500;-51
2022/11/12 17:50:51;;;;;;;14.90;8.52;;;10.90;76.80;;;;;;5054070;28;20040;-51
2022/11/12 17:53:17;;;;;;;12.20;7.32;;;10.90;76.40;;;;;;5054836;28;20059;-49
2022/11/12 17:55:43;;;;;;;17.45;7.82;;;10.90;76.10;;;;;;5055571;28;20511;-62
2022/11/12 17:58:09;;;;;;;12.55;7.45;;;10.90;76.10;;;;;;5056986;28;20025;-63
2022/11/12 18:00:36;;;;;;;14.77;9.23;;;10.90;75.90;;;;;;5056161;28;20041;-63
2022/11/12 18:03:02;;;;;;;12.57;7.85;;;11.00;75.40;;;;;;5055324;28;20067;-62
2022/11/12 18:05:30;;;;;;;11.65;7.25;;;11.00;75.30;;;;;;5055054;28;20044;-63
2022/11/12 18:07:56;;;;;;;17.65;6.97;;;11.00;75.10;;;;;;5055466;28;20021;-63
2022/11/12 18:10:22;;;;;;;14.13;7.93;;;11.10;74.80;;;;;;5055093;28;20071;-64
2022/11/12 18:12:47;;;;;;;11.55;7.00;;;11.00;74.70;;;;;;5055706;28;20017;-63
2022/11/12 18:15:13;;;;;;;15.10;7.78;;;10.90;74.70;;;;;;5055670;28;20543;-62
2022/11/12 18:17:38;;;;;;;17.10;7.70;;;10.80;75.00;;;;;;5054783;28;20021;-62
2022/11/12 18:20:05;;;;;;;14.63;8.00;;;10.90;75.40;;;;;;5055022;28;20021;-62
2022/11/12 18:22:30;;;;;;;17.83;7.80;;;10.90;75.40;;;;;;5054972;28;20381;-63
2022/11/12 18:24:56;;;;;;;10.57;6.90;;;10.80;75.50;;;;;;5055012;28;20074;-62
2022/11/12 18:27:22;;;;;;;11.95;7.88;;;10.80;75.70;;;;;;5054958;28;20108;-63
2022/11/12 18:29:47;;;;;;;13.60;8.30;;;10.90;75.30;;;;;;5052496;28;20021;-61
2022/11/12 18:32:13;;;;;;;12.55;7.88;;;10.90;74.90;;;;;;5055092;28;20480;-62
2022/11/12 18:34:43;;;;;;;15.32;8.50;;;10.90;75.20;;;;;;5055242;28;20076;-62
2022/11/12 18:37:12;;;;;;;15.32;8.15;;;10.80;75.40;;;;;;5053474;28;20032;-65
2022/11/12 18:39:39;;;;;;;13.60;8.27;;;10.90;75.20;;;;;;5054715;28;20025;-62
2022/11/12 18:42:04;;;;;;;17.08;8.05;;;10.90;74.90;;;;;;5054830;28;20037;-61
2022/11/12 18:44:30;;;;;;;13.27;8.10;;;10.90;74.70;;;;;;5054658;28;20496;-63
2022/11/12 18:46:56;;;;;;;15.23;8.75;;;10.90;74.60;;;;;;5054508;28;20025;-63
2022/11/12 18:49:21;;;;;;;13.48;8.38;;;10.80;75.10;;;;;;5055708;28;20404;-63
2022/11/12 18:51:47;;;;;;;13.70;8.27;;;10.80;74.90;;;;;;5054507;28;20115;-63
2022/11/12 18:54:14;;;;;;;15.35;9.45;;;10.90;74.70;;;;;;5054443;28;20522;-63
2022/11/12 18:56:41;;;;;;;16.92;9.27;;;10.90;74.40;;;;;;5054623;28;20055;-63
2022/11/12 18:59:32;;;;;;;17.17;10.65;;;10.90;74.20;;;;;;5054378;28;20468;-62
2022/11/12 19:01:58;;;;;;;14.95;8.95;;;10.90;74.30;;;;;;5054488;28;20487;-62
2022/11/12 19:04:24;;;;;;;13.60;9.20;;;10.90;74.00;;;;;;5054526;28;20021;-63
2022/11/12 19:06:50;;;;;;;16.98;9.13;;;10.80;74.20;;;;;;5053936;28;20048;-62
2022/11/12 19:09:16;;;;;;;17.05;8.80;;;10.80;74.30;;;;;;5054130;28;20045;-65
2022/11/12 19:11:42;;;;;;;16.27;8.63;;;10.80;74.40;;;;;;5054415;28;20080;-63
2022/11/12 19:14:08;;;;;;;16.23;9.05;;;10.80;74.50;;;;;;5054081;28;20032;-62
2022/11/12 19:16:34;;;;;;;14.95;9.50;;;10.70;74.70;;;;;;5054145;28;20334;-62
2022/11/12 19:19:00;;;;;;;16.23;8.20;;;10.60;74.70;;;;;;5052276;28;20549;-62
2022/11/12 19:21:29;;;;;;;12.93;8.27;;;10.60;74.70;;;;;;5053853;28;20099;-67
2022/11/12 19:23:56;;;;;;;13.25;9.23;;;10.70;74.60;;;;;;5052291;28;20236;-62
2022/11/12 19:26:22;;;;;;;14.68;8.02;;;10.60;74.60;;;;;;5053337;28;20412;-63
2022/11/12 19:28:48;;;;;;;13.77;8.38;;;10.70;74.60;;;;;;5053805;28;20027;-63
2022/11/12 19:31:19;;;;;;;18.42;9.23;;;10.60;74.70;;;;;;5053850;28;20021;-62
2022/11/12 19:33:46;;;;;;;18.33;9.75;;;10.50;74.80;;;;;;5053793;28;20025;-62
2022/11/12 19:36:14;;;;;;;16.25;9.52;;;10.60;75.00;;;;;;5053464;28;20115;-61
2022/11/12 19:38:40;;;;;;;15.90;8.23;;;10.60;74.90;;;;;;5053844;28;20031;-62
2022/11/12 19:41:13;;;;;;;17.95;9.63;;;10.40;75.60;;;;;;5053776;28;20388;-62
2022/11/12 19:43:40;;;;;;;16.98;9.10;;;10.40;75.70;;;;;;5054041;28;20021;-61
2022/11/12 19:46:10;;;;;;;15.68;9.43;;;10.50;75.60;;;;;;5054110;28;20029;-62
2022/11/12 19:48:36;;;;;;;20.23;10.20;;;10.40;76.00;;;;;;5053855;28;20029;-63
2022/11/12 19:51:04;;;;;;;18.83;11.02;;;10.40;75.70;;;;;;5052619;28;20298;-61
2022/11/12 19:53:39;;;;;;;18.85;10.27;;;10.40;76.00;;;;;;5052508;28;20021;-62
2022/11/12 19:56:06;;;;;;;19.45;12.20;;;10.30;76.60;;;;;;5053956;28;20370;-63
2022/11/12 19:58:32;;;;;;;21.95;10.05;;;10.30;76.30;;;;;;5053804;28;20404;-62
2022/11/12 20:01:09;;;;;;;23.02;13.20;;;10.20;76.90;;;;;;5052461;28;20584;-61
2022/11/12 20:03:36;;;;;;;19.88;10.90;;;10.10;77.20;;;;;;5053298;28;20025;-61
2022/11/12 20:06:16;;;;;;;19.15;11.55;;;9.90;77.90;;;;;;5052873;28;20072;-63
2022/11/12 20:08:42;;;;;;;21.73;12.38;;;9.90;77.80;;;;;;5051939;28;20021;-64
2022/11/12 20:11:08;;;;;;;21.45;14.45;;;10.10;78.10;;;;;;5053273;28;20362;-62
2022/11/12 20:13:34;;;;;;;21.50;15.10;;;10.00;77.80;;;;;;5053137;28;20021;-61
2022/11/12 20:16:12;;;;;;;21.40;14.75;;;9.90;78.30;;;;;;5053306;28;20033;-61
2022/11/12 20:18:38;;;;;;;21.98;14.38;;;10.00;78.20;;;;;;5053209;28;20376;-62
2022/11/12 20:21:04;;;;;;;21.25;13.73;;;10.00;78.20;;;;;;5053317;28;20104;-49
2022/11/12 20:23:32;;;;;;;19.98;11.75;;;10.00;78.40;;;;;;5052938;28;20025;-50
2022/11/12 20:26:03;;;;;;;22.20;13.48;;;10.00;78.70;;;;;;5052983;28;20380;-53
2022/11/12 20:28:31;;;;;;;21.38;13.27;;;9.90;78.80;;;;;;5052948;28;20032;-52
2022/11/12 20:31:05;;;;;;;18.40;11.98;;;9.90;78.90;;;;;;5052959;28;20057;-49
2022/11/12 20:33:31;;;;;;;18.38;10.80;;;9.90;78.90;;;;;;5053892;28;20029;-50
2022/11/12 20:36:15;;;;;;;17.60;10.85;;;9.90;79.00;;;;;;5053547;28;20025;-49
2022/11/12 20:38:42;;;;;;;20.08;11.70;;;9.90;78.90;;;;;;5053687;28;20116;-50
2022/11/12 20:41:13;;;;;;;16.20;11.20;;;9.90;78.90;;;;;;5053007;28;20408;-50
2022/11/12 20:43:45;;;;;;;15.75;11.05;;;9.90;78.90;;;;;;5053091;28;20131;-50
2022/11/12 20:46:11;;;;;;;17.92;10.48;;;9.80;79.10;;;;;;5053344;28;20021;-49
2022/11/12 20:48:38;;;;;;;20.23;12.65;;;9.80;79.30;;;;;;5053369;28;20053;-52
2022/11/12 20:51:13;;;;;;;20.83;12.30;;;9.80;79.30;;;;;;5053392;28;20108;-56
2022/11/12 20:53:40;;;;;;;22.52;12.65;;;9.90;79.00;;;;;;5056051;28;20414;-49
2022/11/12 20:56:13;;;;;;;25.75;13.05;;;9.80;79.00;;;;;;5057692;28;20037;-52
2022/11/12 20:58:39;;;;;;;26.10;15.50;;;9.80;78.80;;;;;;5056900;28;20025;-50
2022/11/12 21:01:07;;;;;;;27.80;13.40;;;9.80;78.80;;;;;;5056507;28;20028;-51
2022/11/12 21:03:34;;;;;;;23.38;12.88;;;9.80;79.00;;;;;;5056553;28;20098;-51
2022/11/12 21:06:03;;;;;;;25.35;15.45;;;9.80;78.90;;;;;;5055153;28;20041;-53
2022/11/12 21:08:30;;;;;;;23.73;13.93;;;9.80;78.90;;;;;;5056398;28;20059;-52
2022/11/12 21:10:57;;;;;;;22.92;13.55;;;9.80;78.60;;;;;;5056417;28;20056;-49
2022/11/12 21:13:23;;;;;;;26.17;12.38;;;9.80;78.40;;;;;;5056326;28;20036;-49
2022/11/12 21:15:52;;;;;;;18.70;12.63;;;9.80;78.30;;;;;;5056354;28;20103;-51
2022/11/12 21:18:18;;;;;;;22.42;12.93;;;9.80;78.40;;;;;;5055221;28;20114;-50
2022/11/12 21:20:44;;;;;;;21.25;12.38;;;9.80;78.10;;;;;;5056635;28;20055;-51
2022/11/12 21:23:10;;;;;;;18.27;11.57;;;9.80;78.20;;;;;;5056090;28;20029;-48
2022/11/12 21:25:37;;;;;;;18.92;11.68;;;9.80;77.80;;;;;;5054976;28;20033;-51
2022/11/12 21:28:04;;;;;;;17.98;11.40;;;9.80;77.60;;;;;;5056345;28;20021;-53
2022/11/12 21:30:31;;;;;;;18.08;11.30;;;9.70;78.10;;;;;;5056619;28;20104;-51
2022/11/12 21:32:57;;;;;;;25.17;12.32;;;9.60;78.80;;;;;;5056159;28;20541;-49
2022/11/12 21:35:22;;;;;;;20.73;11.23;;;9.70;78.80;;;;;;5055969;28;20048;-50
2022/11/12 21:37:48;;;;;;;17.40;9.98;;;9.90;77.70;;;;;;5055842;28;20021;-49
2022/11/12 21:40:15;;;;;;;18.05;10.98;;;9.80;77.20;;;;;;5055884;28;20434;-50
2022/11/12 21:42:44;;;;;;;18.60;10.73;;;10.00;76.80;;;;;;5056021;28;20526;-51
2022/11/12 21:45:11;;;;;;;18.58;11.55;;;9.90;76.30;;;;;;5054384;28;20025;-51
2022/11/12 21:47:36;;;;;;;22.48;11.23;;;10.00;75.90;;;;;;5055637;28;20025;-49
2022/11/12 21:50:03;;;;;;;17.42;10.38;;;9.90;76.00;;;;;;5054330;28;20029;-50
2022/11/12 21:52:28;;;;;;;17.50;10.27;;;9.90;76.10;;;;;;5054269;28;20032;-51
2022/11/12 21:54:57;;;;;;;19.20;10.95;;;10.00;76.10;;;;;;5056155;28;20029;-50
2022/11/12 21:57:22;;;;;;;17.10;10.45;;;10.00;75.90;;;;;;5055583;28;20470;-51
2022/11/12 21:59:48;;;;;;;18.63;11.13;;;9.90;75.80;;;;;;5055713;28;20086;-54
2022/11/12 22:02:14;;;;;;;15.55;10.50;;;9.90;75.70;;;;;;5054069;28;20048;-51
2022/11/12 22:04:39;;;;;;;20.30;10.88;;;9.90;75.70;;;;;;5054850;28;20025;-49
2022/11/12 22:07:05;;;;;;;18.33;10.43;;;9.90;75.60;;;;;;5054897;28;20060;-54
2022/11/12 22:09:31;;;;;;;19.13;10.75;;;9.90;75.60;;;;;;5055050;28;20048;-49
2022/11/12 22:11:57;;;;;;;16.42;10.68;;;9.90;75.40;;;;;;5054977;28;20025;-51
2022/11/12 22:14:22;;;;;;;20.52;11.60;;;9.80;75.50;;;;;;5053899;28;20028;-48
2022/11/12 22:16:48;;;;;;;21.48;11.85;;;9.90;75.50;;;;;;5055112;28;20029;-50
2022/11/12 22:19:14;;;;;;;18.75;10.73;;;9.80;75.70;;;;;;5053651;28;20118;-49
2022/11/12 22:21:41;;;;;;;16.05;11.15;;;9.80;75.60;;;;;;5054829;28;20060;-51
2022/11/12 22:24:09;;;;;;;21.58;11.43;;;9.80;75.80;;;;;;5054801;28;20099;-52
2022/11/12 22:26:35;;;;;;;21.73;12.88;;;9.70;75.70;;;;;;5054794;28;20029;-52
2022/11/12 22:29:01;;;;;;;22.40;10.90;;;9.80;75.10;;;;;;5055163;28;20107;-49
2022/11/12 22:31:29;;;;;;;17.20;11.40;;;9.80;75.00;;;;;;5054762;28;20017;-49
2022/11/12 22:33:56;;;;;;;19.40;12.00;;;9.80;75.00;;;;;;5054853;28;20021;-50
2022/11/12 22:36:24;;;;;;;25.30;12.15;;;9.80;74.90;;;;;;5055278;28;20052;-50
2022/11/12 22:38:51;;;;;;;21.73;10.57;;;9.80;74.90;;;;;;5054737;28;20036;-50